METAR AND TAF INFORMATION
METAR FOR SGAS
ADDS - METARS form results

(1742 UTC 21 May 2019)
Data provider http://aviationweather.gov/metar/data/
 
METAR text: SGAS 211715Z 19007KT 150V210 5000 TSRA SCT007 OVC020 21/21 Q1012
Conditions at: SGAS (ASUNCION/SILVIO , PY) observed 1715 UTC 21 May 2019
Temperature: 21.0°C (70°F)
Dewpoint: 21.0°C (70°F) [RH = 100%]
Pressure (altimeter): 29.88 inches Hg (1012.0 mb)
Winds: from the S (190 degrees) at 8 MPH (7 knots; 3.6 m/s)
Visibility: 3 miles ( 5 km)
Ceiling: 2000 feet AGL
Clouds: scattered clouds at 700 feet AGL
overcast cloud deck at 2000 feet AGL
Weather: TSRA  (rain associated with thunderstorm(s))

METAR text: SGAS 211707Z 22006KT 180V240 0900 +TSRA BKN005 OVC020 FEW040CB 21/21 Q1012
Conditions at: SGAS (ASUNCION/SILVIO , PY) observed 1707 UTC 21 May 2019
Temperature: 21.0°C (70°F)
Dewpoint: 21.0°C (70°F) [RH = 100%]
Pressure (altimeter): 29.88 inches Hg (1012.0 mb)
Winds: from the SW (220 degrees) at 7 MPH (6 knots; 3.1 m/s)
Visibility: 0.56 miles (0.90 km)
Ceiling: 500 feet AGL
Clouds: broken clouds at 500 feet AGL
overcast cloud deck at 2000 feet AGL
few clouds at 4000 feet AGL
Weather: +TSRA  (heavy rain associated with thunderstorm(s))

METAR text: SGAS 211700Z 211700Z 21008KT 180V250 5000 -RA BKN010 OVC020 22/20 Q1012
Conditions at: SGAS (ASUNCION/SILVIO , PY) observed 1700 UTC 21 May 2019
Temperature: 22.0°C (72°F)
Dewpoint: 20.0°C (68°F) [RH = 88%]
Pressure (altimeter): 29.88 inches Hg (1012.0 mb)
Winds: from the SSW (210 degrees) at 9 MPH (8 knots; 4.1 m/s)
Visibility: 3 miles ( 5 km)
Ceiling: 1000 feet AGL
Clouds: broken clouds at 1000 feet AGL
overcast cloud deck at 2000 feet AGL
Weather: -RA  (light rain)

METAR text: SGAS 211647Z 21008KT 180V250 9000 -RA SCT013 OVC020 22/21 Q1012
Conditions at: SGAS (ASUNCION/SILVIO , PY) observed 1647 UTC 21 May 2019
Temperature: 22.0°C (72°F)
Dewpoint: 21.0°C (70°F) [RH = 94%]
Pressure (altimeter): 29.88 inches Hg (1012.0 mb)
Winds: from the SSW (210 degrees) at 9 MPH (8 knots; 4.1 m/s)
Visibility: 6 miles ( 9 km)
Ceiling: 2000 feet AGL
Clouds: scattered clouds at 1300 feet AGL
overcast cloud deck at 2000 feet AGL
Weather: -RA  (light rain)

Forecast for: SGAS (ASUNCION/SILVIO , PY)
Text: TAF SGAS 211049Z 2112/2212 17004KT 9999 VCTS BKN033 FEW040CB TX24/2119Z TN14/2209Z
Forecast period: 1200 to 1300 UTC 21 May 2019
Forecast type: FROM: standard forecast or significant change
Winds: from the S (170 degrees) at 5 MPH (4 knots; 2.1 m/s)
Visibility: 6 or more miles 10+ km)
Ceiling: 3300 feet AGL
Clouds: broken clouds at 3300 feet AGL
few clouds at 4000 feet AGL
Weather: VCTS  (thunderstorm in vicinity)
Text: BECMG 2113/2116 21010KT 6000 TSRA OVC020 FEW040CB
Forecast period: 1300 to 1700 UTC 21 May 2019
Forecast type: BECOMING: Conditions expected to become as follows by 1600 UTC 21 May 2019
Winds: from the SSW (210 degrees) at 12 MPH (10 knots; 5.1 m/s)
Visibility: 4 miles (6 km)
Ceiling: 2000 feet AGL
Clouds: overcast cloud deck at 2000 feet AGL
few clouds at 4000 feet AGL
Weather: TSRA  (rain associated with thunderstorm(s))
Text: BECMG 2117/2120 19012KT 8000 -RA OVC015
Forecast period: 1700 to 2100 UTC 21 May 2019
Forecast type: BECOMING: Conditions expected to become as follows by 2000 UTC 21 May 2019
Winds: from the S (190 degrees) at 14 MPH (12 knots; 6.2 m/s)
Visibility: 5 miles (8 km)
Ceiling: 1500 feet AGL
Clouds: overcast cloud deck at 1500 feet AGL
Weather: -RA  (light rain)
Text: BECMG 2121/2200 18008KT 9999 DZ OVC010
Forecast period: 2100 UTC 21 May 2019 to 0400 UTC 22 May 2019
Forecast type: BECOMING: Conditions expected to become as follows by 0000 UTC 22 May 2019
Winds: from the S (180 degrees) at 9 MPH (8 knots; 4.1 m/s)
Visibility: 6 or more miles 10+ km)
Ceiling: 1000 feet AGL
Clouds: overcast cloud deck at 1000 feet AGL
Weather: DZ  (moderate drizzle)
Text: BECMG 2204/2207 21010KT 9999 BKN020
Forecast period: 0400 to 1200 UTC 22 May 2019
Forecast type: BECOMING: Conditions expected to become as follows by 0700 UTC 22 May 2019
Winds: from the SSW (210 degrees) at 12 MPH (10 knots; 5.1 m/s)
Visibility: 6 or more miles 10+ km)
Ceiling: 2000 feet AGL
Clouds: broken clouds at 2000 feet AGL
Weather: DZ  (moderate drizzle)

 AIRPORT MAP

 RUNWAY INFORMATION

 AIRPORT FREQUENCIES
Type APP Name ASUNCION A Frequency 119.7 MHZ
Type CTR Name ASUNCION C Frequency 128.4 MHZ
Type GND Name GND Frequency 121.9 MHZ
Type RDO Name ASUNCION R Frequency 126.9 MHZ
Type RDO Name ASUNCION R Frequency 1002.4 MHZ
Type TWR Name ASUNCION T Frequency 118.1 MHZ

 AIRPORT NEAR NAVIGATION AIDS
Type NDB Name Asuncion Frequency 360 KHZ
Type NDB Name Asuncion Frequency 320 KHZ
Type NDB Name Asuncion Frequency 340 KHZ
Type VOR-DME Name Asuncion Frequency 115900 KHZ
Type NDB Name Asuncion Frequency 305 KHZ



Powered by Virtual Airlines Manager [v2.6.2]